createdAt,value
2023-03-04T00:00:12.217Z,24.80
2023-03-04T00:01:45.291Z,24.60
2023-03-04T00:03:18.527Z,24.67
2023-03-04T00:04:51.629Z,24.57
2023-03-04T00:06:24.930Z,24.37
2023-03-04T00:07:57.998Z,25.90
2023-03-04T00:09:31.290Z,24.00
2023-03-04T00:11:04.364Z,22.47
2023-03-04T00:12:36.478Z,26.23
2023-03-04T00:14:11.154Z,24.23
2023-03-04T00:15:43.286Z,23.80
2023-03-04T00:17:16.359Z,23.43
2023-03-04T00:18:49.478Z,22.53
2023-03-04T00:20:22.534Z,23.30
2023-03-04T00:21:54.636Z,24.03
2023-03-04T00:23:27.677Z,23.37
2023-03-04T00:25:00.776Z,22.30
2023-03-04T00:26:34.070Z,22.50
2023-03-04T00:28:07.155Z,21.83
2023-03-04T00:29:41.637Z,22.67
2023-03-04T00:31:14.738Z,21.57
2023-03-04T00:32:47.869Z,22.07
2023-03-04T00:34:21.533Z,22.17
2023-03-04T00:35:54.796Z,20.47
2023-03-04T00:37:28.591Z,20.33
2023-03-04T00:39:01.717Z,21.23
2023-03-04T00:40:35.304Z,21.00
2023-03-04T00:42:10.364Z,21.43
2023-03-04T00:43:45.032Z,20.87
2023-03-04T00:45:18.677Z,21.27
2023-03-04T00:46:52.306Z,20.40
2023-03-04T00:48:25.553Z,20.57
2023-03-04T00:49:57.622Z,21.23
2023-03-04T00:51:30.914Z,20.53
2023-03-04T00:53:04.264Z,20.27
2023-03-04T00:54:37.530Z,20.20
2023-03-04T00:56:09.610Z,21.35
2023-03-04T00:57:42.706Z,20.63
2023-03-04T00:59:15.772Z,21.93
2023-03-04T01:00:49.301Z,21.67
2023-03-04T01:02:22.523Z,20.52
2023-03-04T01:03:55.907Z,21.07
2023-03-04T01:05:29.046Z,20.27
2023-03-04T01:07:01.183Z,20.90
2023-03-04T01:08:35.242Z,21.27
2023-03-04T01:10:12.010Z,20.10
2023-03-04T01:11:45.089Z,21.17
2023-03-04T01:13:17.314Z,19.93
2023-03-04T01:14:50.507Z,19.30
2023-03-04T01:16:24.976Z,20.27
2023-03-04T01:17:57.103Z,20.43
2023-03-04T01:19:30.253Z,20.10
2023-03-04T01:21:05.599Z,19.30
2023-03-04T01:22:38.843Z,20.67
2023-03-04T01:24:11.931Z,22.35
2023-03-04T01:25:46.968Z,20.83
2023-03-04T01:27:19.095Z,19.90
2023-03-04T01:28:52.157Z,19.90
2023-03-04T01:30:24.328Z,21.10
2023-03-04T01:31:58.890Z,21.47
2023-03-04T01:33:32.001Z,21.03
2023-03-04T01:35:05.673Z,19.83
2023-03-04T01:36:38.796Z,18.73
2023-03-04T01:38:12.700Z,18.87
2023-03-04T01:39:45.939Z,20.73
2023-03-04T01:41:24.970Z,21.57
2023-03-04T01:42:57.056Z,20.20
2023-03-04T01:44:30.438Z,21.17
2023-03-04T01:46:04.050Z,20.03
2023-03-04T01:47:37.581Z,20.03
2023-03-04T01:49:14.734Z,20.33
2023-03-04T01:50:48.052Z,20.38
2023-03-04T01:52:21.169Z,20.07
2023-03-04T01:53:54.960Z,21.27
2023-03-04T01:55:29.632Z,20.52
2023-03-04T01:57:02.962Z,21.73
2023-03-04T01:58:36.250Z,20.00
2023-03-04T02:00:19.552Z,20.35
2023-03-04T02:01:54.411Z,19.53
2023-03-04T02:03:28.035Z,19.70
2023-03-04T02:05:01.296Z,21.53
2023-03-04T02:06:36.721Z,19.50
2023-03-04T02:08:11.524Z,19.52
2023-03-04T02:09:44.753Z,19.57
2023-03-04T02:11:19.489Z,19.80
2023-03-04T02:12:52.458Z,19.77
2023-03-04T02:14:26.163Z,20.37
2023-03-04T02:15:59.362Z,19.83
2023-03-04T02:17:32.440Z,19.05
2023-03-04T02:19:10.493Z,19.13
2023-03-04T02:20:57.095Z,20.23
2023-03-04T02:22:29.240Z,18.40
2023-03-04T02:24:11.897Z,19.40
2023-03-04T02:25:50.363Z,18.85
2023-03-04T02:27:24.981Z,19.27
2023-03-04T02:29:00.202Z,19.63
2023-03-04T02:30:35.082Z,19.20
2023-03-04T02:32:11.858Z,18.40
2023-03-04T02:33:45.026Z,19.03
2023-03-04T02:35:18.994Z,19.67
2023-03-04T02:36:54.356Z,19.87
2023-03-04T02:38:27.659Z,19.23
2023-03-04T02:40:00.825Z,18.07
2023-03-04T02:41:34.506Z,18.53
2023-03-04T02:43:12.194Z,17.00
2023-03-04T02:44:48.335Z,20.40
2023-03-04T02:46:22.552Z,17.87
2023-03-04T02:47:54.818Z,19.47
2023-03-04T02:49:29.648Z,18.93
2023-03-04T02:51:02.282Z,18.53
2023-03-04T02:52:35.357Z,18.50
2023-03-04T02:54:16.465Z,19.07
2023-03-04T02:55:50.235Z,18.53
2023-03-04T02:57:25.159Z,18.60
2023-03-04T02:59:02.390Z,18.97
2023-03-04T03:00:35.502Z,18.23
2023-03-04T03:02:10.085Z,18.20
2023-03-04T03:03:43.234Z,18.30
2023-03-04T03:05:16.586Z,16.73
2023-03-04T03:06:49.685Z,18.83
2023-03-04T03:08:22.839Z,19.53
2023-03-04T03:09:54.888Z,21.23
2023-03-04T03:11:27.979Z,18.53
2023-03-04T03:13:01.940Z,19.57
2023-03-04T03:14:37.270Z,19.70
2023-03-04T03:16:11.527Z,19.07
2023-03-04T03:17:44.760Z,19.20
2023-03-04T03:19:16.841Z,18.63
2023-03-04T03:20:50.429Z,18.10
2023-03-04T03:22:22.533Z,18.63
2023-03-04T03:23:55.605Z,21.13
2023-03-04T03:25:27.736Z,18.60
2023-03-04T03:27:00.911Z,18.40
2023-03-04T03:28:34.235Z,18.63
2023-03-04T03:30:09.913Z,19.17
2023-03-04T03:31:43.205Z,20.73
2023-03-04T03:33:16.297Z,19.33
2023-03-04T03:34:49.406Z,18.03
2023-03-04T03:36:21.593Z,18.87
2023-03-04T03:37:54.820Z,17.73
2023-03-04T03:39:27.895Z,18.57
2023-03-04T03:41:00.048Z,20.27
2023-03-04T03:42:33.118Z,18.83
2023-03-04T03:44:06.496Z,18.13
2023-03-04T03:45:40.931Z,17.75
2023-03-04T03:47:14.024Z,19.67
2023-03-04T03:48:47.082Z,17.27
2023-03-04T03:50:20.331Z,19.13
2023-03-04T03:51:52.524Z,18.47
2023-03-04T03:53:25.581Z,19.33
2023-03-04T03:54:58.127Z,18.70
2023-03-04T03:56:31.781Z,19.83
2023-03-04T03:58:03.889Z,18.98
2023-03-04T03:59:36.965Z,18.03
2023-03-04T04:01:11.391Z,19.50
2023-03-04T04:02:44.483Z,18.60
2023-03-04T04:04:16.660Z,19.17
2023-03-04T04:05:49.695Z,18.43
2023-03-04T04:07:22.789Z,18.17
2023-03-04T04:08:55.855Z,18.90
2023-03-04T04:10:29.045Z,19.17
2023-03-04T04:12:01.136Z,19.03
2023-03-04T04:13:34.193Z,18.83
2023-03-04T04:15:08.727Z,17.50
2023-03-04T04:16:42.608Z,17.67
2023-03-04T04:18:15.704Z,17.53
2023-03-04T04:19:48.747Z,18.30
2023-03-04T04:21:21.817Z,18.47
2023-03-04T04:22:54.898Z,17.27
2023-03-04T04:24:27.131Z,16.53
2023-03-04T04:26:00.184Z,16.50
2023-03-04T04:27:33.264Z,17.70
2023-03-04T04:29:06.357Z,16.90
2023-03-04T04:30:39.834Z,16.27
2023-03-04T04:32:14.289Z,17.63
2023-03-04T04:33:47.381Z,15.70
2023-03-04T04:35:20.821Z,17.67
2023-03-04T04:36:54.085Z,14.80
2023-03-04T04:38:26.349Z,16.70
2023-03-04T04:39:59.484Z,17.70
2023-03-04T04:41:41.287Z,16.70
2023-03-04T04:43:13.366Z,17.07
2023-03-04T04:44:46.379Z,16.53
2023-03-04T04:46:19.633Z,16.40
2023-03-04T04:47:55.538Z,17.73
2023-03-04T04:49:28.688Z,16.13
2023-03-04T04:51:00.759Z,16.35
2023-03-04T04:52:33.849Z,15.60
2023-03-04T04:54:07.466Z,17.50
2023-03-04T04:55:39.700Z,16.70
2023-03-04T04:57:12.747Z,16.43
2023-03-04T04:58:46.515Z,16.17
2023-03-04T05:00:20.388Z,16.13
2023-03-04T05:01:53.455Z,16.67
2023-03-04T05:03:26.911Z,15.53
2023-03-04T05:05:00.009Z,15.93
2023-03-04T05:06:33.051Z,16.73
2023-03-04T05:08:06.767Z,17.13
2023-03-04T05:09:39.807Z,17.37
2023-03-04T05:11:11.880Z,16.23
2023-03-04T05:12:45.969Z,18.50
2023-03-04T05:14:19.150Z,16.27
2023-03-04T05:15:52.253Z,15.83
2023-03-04T05:17:25.323Z,16.97
2023-03-04T05:18:59.789Z,15.10
2023-03-04T05:20:32.836Z,15.60
2023-03-04T05:22:05.948Z,16.87
2023-03-04T05:23:39.743Z,16.00
2023-03-04T05:25:12.814Z,15.60
2023-03-04T05:26:45.873Z,17.03
2023-03-04T05:28:19.488Z,16.40
2023-03-04T05:29:52.529Z,16.23
2023-03-04T05:31:25.641Z,17.23
2023-03-04T05:32:57.700Z,16.57
2023-03-04T05:34:32.318Z,15.40
2023-03-04T05:36:07.182Z,15.27
2023-03-04T05:37:40.296Z,16.80
2023-03-04T05:39:13.631Z,16.97
2023-03-04T05:40:47.464Z,16.17
2023-03-04T05:42:20.496Z,16.97
2023-03-04T05:43:53.531Z,16.63
2023-03-04T05:45:27.325Z,15.67
2023-03-04T05:47:00.351Z,15.50
2023-03-04T05:48:33.566Z,15.40
2023-03-04T05:50:09.223Z,15.77
2023-03-04T05:51:42.299Z,16.73
2023-03-04T05:53:15.459Z,16.10
2023-03-04T05:54:48.522Z,15.63
2023-03-04T05:56:21.887Z,14.07
2023-03-04T05:57:53.992Z,14.67
2023-03-04T05:59:27.178Z,15.97
2023-03-04T06:01:01.904Z,14.77
2023-03-04T06:02:35.241Z,14.83
2023-03-04T06:04:08.521Z,14.77
2023-03-04T06:05:43.116Z,14.43
2023-03-04T06:07:16.356Z,14.47
2023-03-04T06:08:49.462Z,14.50
2023-03-04T06:10:22.502Z,14.03
2023-03-04T06:11:55.566Z,13.83
2023-03-04T06:13:28.962Z,14.07
2023-03-04T06:15:02.855Z,13.50
2023-03-04T06:16:35.898Z,14.37
2023-03-04T06:18:09.321Z,13.90
2023-03-04T06:19:42.802Z,13.93
2023-03-04T06:21:17.376Z,13.53
2023-03-04T06:22:50.523Z,13.43
2023-03-04T06:24:23.622Z,13.33
2023-03-04T06:25:58.418Z,14.00
2023-03-04T06:27:31.682Z,13.43
2023-03-04T06:29:05.950Z,13.30
2023-03-04T06:30:39.328Z,12.83
2023-03-04T06:32:12.485Z,12.73
2023-03-04T06:33:46.222Z,13.17
2023-03-04T06:35:19.554Z,12.37
2023-03-04T06:36:52.993Z,13.77
2023-03-04T06:38:26.843Z,13.97
2023-03-04T06:40:00.012Z,14.00
2023-03-04T06:41:32.583Z,13.03
2023-03-04T06:43:05.646Z,13.37
2023-03-04T06:44:39.088Z,13.87
2023-03-04T06:46:12.260Z,12.93
2023-03-04T06:47:45.511Z,13.77
2023-03-04T06:49:18.737Z,12.70
2023-03-04T06:50:51.899Z,13.80
2023-03-04T06:52:26.412Z,12.67
2023-03-04T06:53:59.461Z,13.60
2023-03-04T06:55:32.556Z,12.87
2023-03-04T06:57:05.623Z,12.23
2023-03-04T06:58:39.400Z,13.03
2023-03-04T07:00:13.807Z,11.97
2023-03-04T07:01:46.885Z,12.13
2023-03-04T07:03:19.945Z,12.33
2023-03-04T07:04:52.225Z,12.57
2023-03-04T07:06:27.695Z,12.60
2023-03-04T07:08:02.138Z,13.40
2023-03-04T07:09:35.362Z,11.77
2023-03-04T07:11:09.666Z,13.67
2023-03-04T07:12:43.519Z,12.73
2023-03-04T07:14:16.746Z,13.00
2023-03-04T07:15:49.866Z,12.07
2023-03-04T07:17:22.896Z,11.87
2023-03-04T07:18:55.935Z,12.77
2023-03-04T07:20:31.601Z,12.73
2023-03-04T07:22:04.972Z,12.43
2023-03-04T07:23:39.062Z,12.30
2023-03-04T07:25:12.296Z,12.23
2023-03-04T07:26:45.465Z,12.73
2023-03-04T07:28:19.171Z,13.37
2023-03-04T07:29:52.291Z,11.97
2023-03-04T07:31:29.727Z,12.33
2023-03-04T07:33:02.943Z,12.03
2023-03-04T07:34:36.054Z,12.83
2023-03-04T07:36:09.748Z,12.57
2023-03-04T07:37:43.007Z,12.37
2023-03-04T07:39:17.472Z,11.70
2023-03-04T07:40:57.011Z,12.00
2023-03-04T07:42:30.122Z,11.87
2023-03-04T07:44:13.396Z,12.27
2023-03-04T07:45:46.613Z,12.23
2023-03-04T07:47:19.718Z,11.97
2023-03-04T07:48:52.778Z,11.07
2023-03-04T07:50:25.875Z,12.07
2023-03-04T07:51:58.974Z,11.83
2023-03-04T07:53:32.451Z,11.47
2023-03-04T07:55:08.010Z,11.37
2023-03-04T07:56:41.120Z,12.10
2023-03-04T07:58:14.207Z,10.87
2023-03-04T07:59:47.295Z,10.90
2023-03-04T08:01:22.476Z,10.73
2023-03-04T08:02:55.525Z,11.70
2023-03-04T08:04:28.634Z,11.00
2023-03-04T08:06:02.288Z,12.00
2023-03-04T08:07:35.972Z,11.20
2023-03-04T08:09:10.087Z,10.97
2023-03-04T08:10:44.974Z,10.70
2023-03-04T08:12:18.460Z,11.33
2023-03-04T08:13:54.121Z,11.13
2023-03-04T08:15:27.471Z,11.80
2023-03-04T08:17:00.964Z,10.60
2023-03-04T08:18:34.472Z,10.87
2023-03-04T08:20:08.730Z,10.97
2023-03-04T08:21:41.999Z,10.43
2023-03-04T08:23:15.068Z,11.13
2023-03-04T08:24:48.215Z,9.67
2023-03-04T08:26:25.927Z,10.57
2023-03-04T08:27:59.689Z,10.10
2023-03-04T08:29:32.846Z,10.27
2023-03-04T08:31:06.245Z,9.63
2023-03-04T08:32:39.455Z,11.00
2023-03-04T08:34:13.039Z,10.10
2023-03-04T08:35:46.131Z,10.03
2023-03-04T08:37:19.223Z,9.87
2023-03-04T08:38:52.327Z,9.57
2023-03-04T08:40:27.043Z,9.97
2023-03-04T08:42:02.289Z,9.23
2023-03-04T08:43:35.945Z,9.67
2023-03-04T08:45:10.397Z,9.43
2023-03-04T08:46:44.508Z,10.00
2023-03-04T08:48:18.086Z,10.30
2023-03-04T08:49:52.136Z,9.70
2023-03-04T08:51:25.353Z,9.93
2023-03-04T08:52:59.929Z,9.90
2023-03-04T08:54:33.044Z,10.43
2023-03-04T08:56:06.786Z,10.23
2023-03-04T08:57:41.217Z,9.70
2023-03-04T08:59:14.289Z,9.43
2023-03-04T09:00:49.380Z,9.60
2023-03-04T09:02:23.059Z,9.17
2023-03-04T09:03:56.531Z,9.50
2023-03-04T09:05:29.995Z,10.97
2023-03-04T09:07:03.092Z,9.50
2023-03-04T09:08:36.574Z,9.50
2023-03-04T09:10:11.013Z,9.10
2023-03-04T09:11:44.205Z,9.67
2023-03-04T09:13:19.266Z,9.00
2023-03-04T09:15:09.934Z,9.10
2023-03-04T09:16:44.049Z,10.90
2023-03-04T09:18:17.716Z,9.73
2023-03-04T09:19:51.204Z,9.00
2023-03-04T09:21:25.055Z,9.80
2023-03-04T09:22:58.546Z,8.70
2023-03-04T09:24:32.366Z,8.60
2023-03-04T09:26:15.310Z,8.63
2023-03-04T09:27:49.032Z,8.90
2023-03-04T09:29:25.034Z,7.80
2023-03-04T09:30:58.872Z,8.57
2023-03-04T09:32:31.804Z,8.50
2023-03-04T09:34:05.704Z,8.27
2023-03-04T09:35:39.764Z,8.80
2023-03-04T09:37:13.640Z,8.00
2023-03-04T09:38:47.791Z,8.93
2023-03-04T09:40:23.457Z,7.87
2023-03-04T09:41:58.676Z,8.80
2023-03-04T09:43:32.951Z,7.80
2023-03-04T09:45:10.190Z,8.07
2023-03-04T09:46:45.136Z,7.60
2023-03-04T09:48:20.853Z,8.63
2023-03-04T09:49:59.217Z,9.50
2023-03-04T09:51:43.485Z,8.40
2023-03-04T09:53:21.035Z,9.43
2023-03-04T09:54:58.710Z,7.87
2023-03-04T09:56:39.804Z,8.50
2023-03-04T09:58:18.687Z,7.90
2023-03-04T09:59:56.656Z,8.07
2023-03-04T10:01:33.406Z,8.93
2023-03-04T10:03:09.866Z,8.73
2023-03-04T10:04:48.815Z,8.47
2023-03-04T10:06:24.000Z,8.57
2023-03-04T10:07:59.696Z,7.73
2023-03-04T10:09:42.653Z,7.77
2023-03-04T10:11:17.204Z,8.37
2023-03-04T10:12:51.550Z,8.20
2023-03-04T10:14:35.071Z,8.33
2023-03-04T10:16:12.883Z,9.13
2023-03-04T10:17:49.538Z,8.73
2023-03-04T10:19:35.101Z,9.07
2023-03-04T10:21:16.772Z,8.30
2023-03-04T10:22:51.825Z,8.73
2023-03-04T10:24:29.517Z,7.80
2023-03-04T10:26:11.232Z,7.33
2023-03-04T10:27:45.044Z,7.50
2023-03-04T10:29:19.685Z,7.30
2023-03-04T10:30:59.584Z,7.60
2023-03-04T10:32:32.695Z,7.17
2023-03-04T10:34:08.011Z,6.97
2023-03-04T10:35:44.706Z,6.90
2023-03-04T10:37:17.939Z,8.03
2023-03-04T10:38:54.834Z,7.47
2023-03-04T10:40:27.896Z,7.10
2023-03-04T10:42:03.205Z,6.97
2023-03-04T10:43:36.285Z,6.40
2023-03-04T10:45:22.203Z,6.30
2023-03-04T10:46:57.799Z,8.03
2023-03-04T10:48:32.323Z,7.67
2023-03-04T10:50:07.723Z,7.27
2023-03-04T10:51:44.750Z,6.77
2023-03-04T10:53:33.375Z,6.87
2023-03-04T10:55:15.572Z,10.10
2023-03-04T10:56:56.520Z,6.83
2023-03-04T10:58:30.131Z,7.60
2023-03-04T11:00:04.033Z,6.10
2023-03-04T11:01:36.119Z,5.90
2023-03-04T11:03:28.762Z,6.20
2023-03-04T11:05:17.513Z,5.53
2023-03-04T11:06:50.586Z,6.27
2023-03-04T11:08:24.853Z,6.33
2023-03-04T11:10:10.176Z,6.20
2023-03-04T11:11:46.057Z,6.10
2023-03-04T11:13:21.809Z,6.03
2023-03-04T11:14:55.997Z,5.90
2023-03-04T11:16:32.048Z,6.40
2023-03-04T11:18:10.469Z,6.00
2023-03-04T11:19:47.377Z,6.73
2023-03-04T11:21:23.335Z,6.77
2023-03-04T11:22:58.770Z,6.73
2023-03-04T11:24:34.906Z,6.07
2023-03-04T11:26:14.036Z,6.60
2023-03-04T11:27:49.942Z,6.40
2023-03-04T11:29:27.336Z,5.97
2023-03-04T11:31:04.284Z,5.77
2023-03-04T11:32:43.294Z,6.03
2023-03-04T11:34:26.049Z,6.77
2023-03-04T11:36:10.372Z,5.80
2023-03-04T11:37:49.969Z,5.87
2023-03-04T11:39:30.398Z,6.03
2023-03-04T11:41:10.495Z,6.40
2023-03-04T11:42:46.986Z,5.50
2023-03-04T11:44:20.366Z,6.23
2023-03-04T11:46:26.800Z,6.73
2023-03-04T11:48:09.975Z,7.47
2023-03-04T11:50:14.723Z,7.23
2023-03-04T11:51:56.711Z,5.47
2023-03-04T11:53:41.995Z,5.83
2023-03-04T11:55:37.660Z,5.50
2023-03-04T11:57:19.567Z,6.50
2023-03-04T11:59:30.909Z,5.70
2023-03-04T12:01:10.271Z,6.50
2023-03-04T12:03:05.326Z,6.73
2023-03-04T12:05:06.426Z,5.47
2023-03-04T12:06:50.784Z,5.60
2023-03-04T12:08:41.044Z,5.37
2023-03-04T12:10:23.727Z,5.50
2023-03-04T12:12:06.704Z,5.70
2023-03-04T12:14:21.632Z,5.63
2023-03-04T12:16:06.333Z,6.10
2023-03-04T12:17:53.040Z,5.63
2023-03-04T12:19:35.264Z,5.37
2023-03-04T12:21:30.220Z,5.50
2023-03-04T12:23:19.299Z,5.23
2023-03-04T12:25:15.710Z,5.67
2023-03-04T12:26:54.686Z,5.40
2023-03-04T12:28:52.294Z,5.23
2023-03-04T12:30:42.500Z,5.50
2023-03-04T12:32:23.966Z,5.70
2023-03-04T12:34:24.434Z,7.13
2023-03-04T12:36:07.478Z,5.67
2023-03-04T12:38:02.207Z,6.53
2023-03-04T12:39:40.856Z,5.67
2023-03-04T12:41:28.260Z,5.27
2023-03-04T12:43:22.608Z,5.43
2023-03-04T12:45:01.849Z,5.20
2023-03-04T12:46:43.249Z,5.33
2023-03-04T12:48:27.735Z,4.77
2023-03-04T12:50:16.728Z,4.83
2023-03-04T12:51:59.752Z,5.33
2023-03-04T12:53:38.805Z,4.80
2023-03-04T12:55:15.256Z,4.53
2023-03-04T12:56:54.868Z,4.80
2023-03-04T12:58:31.080Z,5.10
2023-03-04T13:00:19.129Z,5.40
2023-03-04T13:02:04.984Z,4.93
2023-03-04T13:03:47.488Z,5.63
2023-03-04T13:05:37.384Z,5.50
2023-03-04T13:07:18.127Z,5.67
2023-03-04T13:08:59.890Z,5.23
2023-03-04T13:10:33.124Z,5.27
2023-03-04T13:12:16.343Z,5.50
2023-03-04T13:14:02.998Z,5.00
2023-03-04T13:15:37.965Z,5.70
2023-03-04T13:17:42.117Z,5.47
2023-03-04T13:19:45.103Z,5.53
2023-03-04T13:21:24.644Z,5.03
2023-03-04T13:22:59.618Z,5.60
2023-03-04T13:24:47.487Z,5.27
2023-03-04T13:26:25.019Z,4.90
2023-03-04T13:28:20.236Z,5.10
2023-03-04T13:29:53.491Z,5.30
2023-03-04T13:31:27.840Z,5.20
2023-03-04T13:33:45.180Z,5.00
2023-03-04T13:35:51.606Z,4.80
2023-03-04T13:37:30.877Z,5.70
2023-03-04T13:39:23.235Z,5.07
2023-03-04T13:41:13.582Z,5.10
2023-03-04T13:42:46.739Z,5.20
2023-03-04T13:45:05.899Z,5.20
2023-03-04T13:46:43.950Z,4.87
2023-03-04T13:48:27.916Z,4.67
2023-03-04T13:50:42.807Z,5.03
2023-03-04T13:52:50.341Z,5.17
2023-03-04T13:54:28.650Z,4.27
2023-03-04T13:56:07.049Z,4.23
2023-03-04T13:57:49.992Z,5.43
2023-03-04T13:59:28.109Z,4.03
2023-03-04T14:01:00.209Z,4.87
2023-03-04T14:02:35.487Z,4.00
2023-03-04T14:04:17.617Z,4.03
2023-03-04T14:06:12.806Z,3.60
2023-03-04T14:07:45.991Z,3.40
2023-03-04T14:09:24.378Z,3.50
2023-03-04T14:10:57.969Z,3.57
2023-03-04T14:12:33.467Z,3.50
2023-03-04T14:14:09.213Z,3.80
2023-03-04T14:15:42.308Z,4.03
2023-03-04T14:17:21.084Z,3.97
2023-03-04T14:19:06.661Z,3.20
2023-03-04T14:20:49.407Z,3.40
2023-03-04T14:22:26.530Z,3.40
2023-03-04T14:24:05.699Z,3.60
2023-03-04T14:25:40.099Z,4.00
2023-03-04T14:27:14.856Z,3.60
2023-03-04T14:28:50.131Z,3.67
2023-03-04T14:30:39.542Z,3.93
2023-03-04T14:32:15.204Z,3.90
2023-03-04T14:33:51.402Z,3.90
2023-03-04T14:35:26.525Z,3.67
2023-03-04T14:37:00.249Z,3.80
2023-03-04T14:38:36.485Z,3.80
2023-03-04T14:40:19.883Z,4.50
2023-03-04T14:41:56.874Z,4.00
2023-03-04T14:43:32.982Z,4.83
2023-03-04T14:45:08.255Z,4.23
2023-03-04T14:46:51.244Z,4.23
2023-03-04T14:48:33.452Z,4.70
2023-03-04T14:50:08.373Z,3.70
2023-03-04T14:51:46.025Z,3.67
2023-03-04T14:53:20.714Z,4.10
2023-03-04T14:55:02.085Z,4.00
2023-03-04T14:56:37.001Z,3.83
2023-03-04T14:58:21.972Z,4.03
2023-03-04T14:59:55.759Z,4.23
2023-03-04T15:01:34.526Z,3.60
2023-03-04T15:03:21.860Z,4.57
2023-03-04T15:04:55.343Z,6.90
2023-03-04T15:06:30.607Z,5.43
2023-03-04T15:08:06.892Z,6.30
2023-03-04T15:09:40.975Z,5.30
2023-03-04T15:11:23.514Z,5.00
2023-03-04T15:12:59.981Z,5.57
2023-03-04T15:14:45.755Z,5.80
2023-03-04T15:16:23.045Z,5.90
2023-03-04T15:18:00.240Z,4.20
2023-03-04T15:19:33.353Z,4.23
2023-03-04T15:21:30.607Z,3.90
2023-03-04T15:23:07.158Z,4.13
2023-03-04T15:24:41.026Z,3.30
2023-03-04T15:26:15.091Z,3.80
2023-03-04T15:27:49.574Z,4.03
2023-03-04T15:29:23.883Z,4.87
2023-03-04T15:30:58.756Z,3.93
2023-03-04T15:32:32.195Z,3.87
2023-03-04T15:34:07.861Z,3.47
2023-03-04T15:35:42.512Z,5.07
2023-03-04T15:37:21.157Z,3.73
2023-03-04T15:38:54.981Z,5.40
2023-03-04T15:40:31.420Z,5.00
2023-03-04T15:42:04.651Z,4.07
2023-03-04T15:43:37.941Z,2.93
2023-03-04T15:45:21.485Z,2.50
2023-03-04T15:46:55.904Z,2.57
2023-03-04T15:48:29.767Z,2.83
2023-03-04T15:50:03.632Z,2.93
2023-03-04T15:51:37.300Z,2.90
2023-03-04T15:53:16.189Z,2.17
2023-03-04T15:54:50.375Z,1.90
2023-03-04T15:56:26.123Z,2.77
2023-03-04T15:58:01.212Z,2.70
2023-03-04T15:59:34.272Z,2.60
2023-03-04T16:01:07.807Z,3.07
2023-03-04T16:02:42.566Z,2.53
2023-03-04T16:04:16.921Z,2.73
2023-03-04T16:05:51.876Z,2.63
2023-03-04T16:07:30.105Z,2.57
2023-03-04T16:09:07.051Z,2.53
2023-03-04T16:10:43.729Z,2.83
2023-03-04T16:12:15.826Z,2.90
2023-03-04T16:13:49.139Z,2.70
2023-03-04T16:15:24.280Z,2.70
2023-03-04T16:16:57.319Z,2.57
2023-03-04T16:18:31.733Z,2.40
2023-03-04T16:20:05.491Z,3.00
2023-03-04T16:21:37.639Z,2.57
2023-03-04T16:23:14.839Z,2.90
2023-03-04T16:24:47.926Z,3.10
2023-03-04T16:26:24.044Z,2.80
2023-03-04T16:27:58.975Z,2.87
2023-03-04T16:29:32.072Z,2.73
2023-03-04T16:31:05.475Z,2.93
2023-03-04T16:32:38.631Z,2.70
2023-03-04T16:34:13.144Z,2.83
2023-03-04T16:35:47.168Z,3.17
2023-03-04T16:37:20.796Z,2.93
2023-03-04T16:38:56.936Z,2.47
2023-03-04T16:40:31.851Z,3.13
2023-03-04T16:42:05.459Z,3.00
2023-03-04T16:43:38.475Z,2.80
2023-03-04T16:45:17.388Z,2.60
2023-03-04T16:46:50.423Z,3.83
2023-03-04T16:48:23.642Z,3.70
2023-03-04T16:49:58.851Z,3.13
2023-03-04T16:51:37.129Z,3.27
2023-03-04T16:53:24.774Z,2.83
2023-03-04T16:54:58.531Z,2.70
2023-03-04T16:56:31.539Z,3.37
2023-03-04T16:58:06.873Z,3.50
2023-03-04T16:59:41.154Z,2.90
2023-03-04T17:01:18.620Z,3.20
2023-03-04T17:02:55.771Z,3.50
2023-03-04T17:04:30.841Z,3.67
2023-03-04T17:06:06.224Z,3.80
2023-03-04T17:07:39.329Z,3.80
2023-03-04T17:09:12.669Z,6.77
2023-03-04T17:10:45.855Z,4.77
2023-03-04T17:12:18.951Z,4.30
2023-03-04T17:13:52.682Z,8.20
2023-03-04T17:15:25.770Z,4.43
2023-03-04T17:16:58.858Z,5.90
2023-03-04T17:18:32.055Z,6.50
2023-03-04T17:20:06.305Z,5.13
2023-03-04T17:21:40.966Z,3.90
2023-03-04T17:23:14.050Z,3.40
2023-03-04T17:24:47.084Z,3.93
2023-03-04T17:26:22.561Z,3.83
2023-03-04T17:27:55.778Z,4.77
2023-03-04T17:29:28.893Z,4.37
2023-03-04T17:31:02.004Z,5.03
2023-03-04T17:32:35.655Z,4.40
2023-03-04T17:34:08.875Z,5.33
2023-03-04T17:35:41.946Z,4.40
2023-03-04T17:37:16.782Z,3.93
2023-03-04T17:38:52.003Z,5.13
2023-03-04T17:40:25.054Z,3.57
2023-03-04T17:41:58.226Z,3.83
2023-03-04T17:43:31.297Z,4.97
2023-03-04T17:45:05.000Z,4.30
2023-03-04T17:46:39.098Z,3.93
2023-03-04T17:48:15.124Z,3.87
2023-03-04T17:49:48.344Z,4.70
2023-03-04T17:51:21.392Z,4.00
2023-03-04T17:52:55.864Z,4.53
2023-03-04T17:54:29.059Z,4.70
2023-03-04T17:56:03.977Z,4.10
2023-03-04T17:57:37.930Z,4.00
2023-03-04T17:59:14.116Z,4.07
2023-03-04T18:00:47.531Z,3.63
2023-03-04T18:02:20.882Z,4.03
2023-03-04T18:03:54.132Z,3.60
2023-03-04T18:05:27.158Z,3.57
2023-03-04T18:07:00.220Z,4.33
2023-03-04T18:08:34.631Z,4.30
2023-03-04T18:10:08.734Z,4.60
2023-03-04T18:11:43.341Z,4.40
2023-03-04T18:13:16.401Z,4.13
2023-03-04T18:14:49.460Z,4.20
2023-03-04T18:16:26.606Z,4.00
2023-03-04T18:17:59.710Z,3.90
2023-03-04T18:19:32.879Z,3.40
2023-03-04T18:21:05.740Z,3.40
2023-03-04T18:22:38.869Z,3.87
2023-03-04T18:24:13.316Z,4.60
2023-03-04T18:25:46.346Z,3.40
2023-03-04T18:27:19.469Z,3.90
2023-03-04T18:28:53.281Z,3.07
2023-03-04T18:30:27.428Z,3.37
2023-03-04T18:32:00.678Z,4.50
2023-03-04T18:33:34.640Z,3.90
2023-03-04T18:35:08.891Z,3.67
2023-03-04T18:36:41.964Z,3.10
2023-03-04T18:38:14.006Z,3.00
2023-03-04T18:39:48.404Z,3.23
2023-03-04T18:41:21.434Z,3.17
2023-03-04T18:42:54.493Z,4.43
2023-03-04T18:44:27.693Z,11.47
2023-03-04T18:46:03.028Z,4.30
2023-03-04T18:47:37.135Z,5.37
2023-03-04T18:49:11.156Z,5.40
2023-03-04T18:50:44.233Z,4.90
2023-03-04T18:52:17.371Z,5.90
2023-03-04T18:53:50.466Z,4.67
2023-03-04T18:55:25.296Z,4.87
2023-03-04T18:57:03.099Z,3.93
2023-03-04T18:58:39.849Z,5.47
2023-03-04T19:00:15.890Z,4.40
2023-03-04T19:01:51.032Z,4.80
2023-03-04T19:03:24.602Z,3.83
2023-03-04T19:04:59.873Z,3.67
2023-03-04T19:06:34.562Z,3.60
2023-03-04T19:08:07.624Z,4.37
2023-03-04T19:09:40.714Z,4.50
2023-03-04T19:11:15.144Z,4.07
2023-03-04T19:12:48.429Z,3.60
2023-03-04T19:14:21.496Z,3.87
2023-03-04T19:15:55.766Z,4.23
2023-03-04T19:17:32.627Z,5.10
2023-03-04T19:19:05.836Z,6.43
2023-03-04T19:20:41.585Z,5.93
2023-03-04T19:22:14.753Z,6.43
2023-03-04T19:23:47.846Z,5.63
2023-03-04T19:25:20.909Z,4.70
2023-03-04T19:26:55.367Z,4.87
2023-03-04T19:28:28.533Z,5.13
2023-03-04T19:30:01.587Z,4.87
2023-03-04T19:31:34.919Z,5.13
2023-03-04T19:33:08.183Z,4.40
2023-03-04T19:34:41.278Z,4.10
2023-03-04T19:36:14.347Z,5.20
2023-03-04T19:37:47.482Z,4.77
2023-03-04T19:39:20.535Z,4.70
2023-03-04T19:40:53.625Z,4.87
2023-03-04T19:42:28.055Z,4.07
2023-03-04T19:44:01.118Z,4.10
2023-03-04T19:45:34.283Z,4.80
2023-03-04T19:47:07.467Z,4.83
2023-03-04T19:48:41.744Z,4.43
2023-03-04T19:50:16.208Z,4.23
2023-03-04T19:51:49.290Z,4.53
2023-03-04T19:53:22.341Z,3.70
2023-03-04T19:54:55.572Z,4.17
2023-03-04T19:56:28.777Z,4.23
2023-03-04T19:58:03.208Z,3.97
2023-03-04T19:59:36.595Z,4.70
2023-03-04T20:01:27.656Z,4.00
2023-03-04T20:03:01.755Z,4.43
2023-03-04T20:04:34.990Z,4.10
2023-03-04T20:06:09.483Z,3.83
2023-03-04T20:07:43.740Z,3.70
2023-03-04T20:09:17.746Z,4.47
2023-03-04T20:10:50.837Z,3.70
2023-03-04T20:12:24.546Z,3.87
2023-03-04T20:13:59.388Z,3.70
2023-03-04T20:15:35.026Z,4.57
2023-03-04T20:17:08.103Z,4.57
2023-03-04T20:18:41.697Z,5.77
2023-03-04T20:20:15.918Z,4.33
2023-03-04T20:21:49.348Z,4.10
2023-03-04T20:23:22.368Z,4.07
2023-03-04T20:24:55.543Z,4.47
2023-03-04T20:26:29.240Z,4.70
2023-03-04T20:28:02.514Z,4.03
2023-03-04T20:29:36.905Z,4.13
2023-03-04T20:31:15.748Z,5.30
2023-03-04T20:32:49.370Z,4.23
2023-03-04T20:34:22.715Z,4.40
2023-03-04T20:35:55.768Z,4.20
2023-03-04T20:37:28.878Z,4.57
2023-03-04T20:39:04.347Z,4.43
2023-03-04T20:40:40.486Z,5.43
2023-03-04T20:42:13.981Z,4.10
2023-03-04T20:43:47.026Z,4.93
2023-03-04T20:45:22.026Z,4.67
2023-03-04T20:46:55.126Z,4.87
2023-03-04T20:48:28.207Z,4.80
2023-03-04T20:50:01.322Z,4.87
2023-03-04T20:51:35.158Z,5.83
2023-03-04T20:53:08.199Z,5.57
2023-03-04T20:54:41.590Z,4.87
2023-03-04T20:56:14.780Z,4.23
2023-03-04T20:57:49.484Z,4.80
2023-03-04T20:59:22.905Z,5.40